Time;durP1;ratioP1;P1;durP2;ratioP2;P2;SDS_P1;SDS_P2;PMS_P1;PMS_P2;Temp;Humidity;BMP_temperature;BMP_pressure;BME280_temperature;BME280_humidity;BME280_pressure;Samples;Min_cycle;Max_cycle;Signal;HPM_P1;HPM_P2
2021/05/21 00:01:41;;;;;;;10.60;9.10;;;;;;;9.08;74.18;100351.25;102248;1121;80379;-58
2021/05/21 00:03:47;;;;;;;9.60;8.60;;;;;;;9.00;74.07;100351.31;102229;1120;80511;-58
2021/05/21 00:05:56;;;;;;;10.30;9.00;;;;;;;8.92;74.02;100346.83;102216;1121;81900;-59
2021/05/21 00:08:02;;;;;;;9.90;8.90;;;;;;;8.86;74.02;100345.70;102219;1119;81373;-58
2021/05/21 00:10:10;;;;;;;12.80;9.20;;;;;;;8.85;74.34;100357.48;102254;1121;81194;-60
2021/05/21 00:12:15;;;;;;;10.10;9.00;;;;;;;8.85;74.45;100354.78;102269;1120;79322;-60
2021/05/21 00:14:22;;;;;;;13.40;10.00;;;;;;;8.83;74.36;100348.74;102269;1120;79439;-59
2021/05/21 00:16:28;;;;;;;10.30;9.30;;;;;;;8.85;74.58;100343.16;102259;1121;81819;-58
2021/05/21 00:18:34;;;;;;;10.10;9.00;;;;;;;8.85;74.50;100346.70;102240;1121;80469;-58
2021/05/21 00:20:39;;;;;;;10.80;9.40;;;;;;;8.84;74.67;100347.70;102241;1121;79211;-60
2021/05/21 00:22:45;;;;;;;10.10;9.10;;;;;;;8.84;74.73;100344.20;102275;1121;80109;-60
2021/05/21 00:24:51;;;;;;;11.00;9.90;;;;;;;8.85;74.69;100344.01;102248;1121;81557;-60
2021/05/21 00:26:56;;;;;;;11.60;9.70;;;;;;;8.83;74.63;100343.36;102270;1121;79410;-61
2021/05/21 00:29:03;;;;;;;11.30;9.30;;;;;;;8.83;74.78;100335.27;102258;1121;80623;-61
2021/05/21 00:31:08;;;;;;;11.60;10.20;;;;;;;8.82;74.89;100335.44;102303;1120;80055;-59
2021/05/21 00:33:14;;;;;;;11.90;10.20;;;;;;;8.78;75.00;100332.29;102273;1121;79513;-59
2021/05/21 00:35:20;;;;;;;10.70;9.60;;;;;;;8.80;74.98;100332.09;102277;1121;80313;-59
2021/05/21 00:37:25;;;;;;;12.20;9.80;;;;;;;8.76;75.08;100328.10;102316;1121;80688;-59
2021/05/21 00:39:31;;;;;;;10.90;9.40;;;;;;;8.73;75.01;100321.22;102316;1120;80317;-59
2021/05/21 00:41:37;;;;;;;11.40;10.10;;;;;;;8.70;75.27;100326.12;102259;1115;79043;-60
2021/05/21 00:43:42;;;;;;;10.70;9.50;;;;;;;8.65;75.25;100323.13;102288;1121;81116;-60
2021/05/21 00:45:48;;;;;;;10.00;9.00;;;;;;;8.67;75.18;100324.63;102294;1121;79748;-58
2021/05/21 00:47:54;;;;;;;10.80;9.50;;;;;;;8.68;75.31;100322.77;102298;1121;80730;-58
2021/05/21 00:50:03;;;;;;;12.00;9.40;;;;;;;8.67;74.92;100324.63;102250;1121;80766;-58
2021/05/21 00:52:09;;;;;;;10.70;9.50;;;;;;;8.63;75.37;100317.91;102279;1120;79386;-59
2021/05/21 00:54:19;;;;;;;11.60;9.50;;;;;;;8.60;75.39;100320.95;102301;1121;80808;-58
2021/05/21 00:56:25;;;;;;;10.00;9.00;;;;;;;8.55;75.07;100317.12;102249;1121;80511;-60
2021/05/21 00:58:31;;;;;;;9.50;8.10;;;;;;;8.52;75.09;100315.63;102301;1120;80676;-60
2021/05/21 01:00:37;;;;;;;10.10;9.00;;;;;;;8.48;75.29;100317.01;102319;1121;80078;-58
2021/05/21 01:02:43;;;;;;;10.40;9.30;;;;;;;8.39;75.31;100314.53;102293;1121;80891;-58
2021/05/21 01:04:50;;;;;;;11.30;9.40;;;;;;;8.32;75.31;100314.42;102300;1120;79631;-59
2021/05/21 01:06:55;;;;;;;10.10;8.00;;;;;;;8.25;75.36;100318.78;102283;1121;80352;-58
2021/05/21 01:09:02;;;;;;;12.00;8.80;;;;;;;8.23;75.66;100324.35;102295;1121;80371;-58
2021/05/21 01:11:09;;;;;;;11.80;9.80;;;;;;;8.21;75.66;100314.78;102270;1121;80309;-60
2021/05/21 01:13:15;;;;;;;10.80;9.40;;;;;;;8.14;75.41;100309.25;102304;1121;80745;-60
2021/05/21 01:15:21;;;;;;;10.90;9.00;;;;;;;8.10;75.61;100310.60;102297;1121;79751;-60
2021/05/21 01:17:29;;;;;;;10.50;9.00;;;;;;;8.08;75.64;100315.33;102266;1120;79855;-60
2021/05/21 01:19:35;;;;;;;10.60;8.60;;;;;;;8.07;75.77;100304.76;102301;1121;80060;-59
2021/05/21 01:21:40;;;;;;;10.20;8.70;;;;;;;8.04;75.71;100305.95;102289;1119;81737;-58
2021/05/21 01:23:46;;;;;;;10.90;9.20;;;;;;;8.05;75.78;100318.37;102305;1121;79932;-58
2021/05/21 01:25:52;;;;;;;10.20;9.00;;;;;;;8.00;75.79;100311.84;102302;1121;80643;-58
2021/05/21 01:27:59;;;;;;;10.10;8.10;;;;;;;8.01;75.96;100317.05;102278;1120;79154;-58
2021/05/21 01:30:07;;;;;;;10.80;8.80;;;;;;;8.05;76.23;100321.05;102287;1121;81835;-58
2021/05/21 01:32:14;;;;;;;9.10;8.20;;;;;;;8.10;76.04;100323.25;102289;1121;81004;-58
2021/05/21 01:34:19;;;;;;;10.20;9.10;;;;;;;8.16;76.30;100314.45;102308;1121;80964;-59
2021/05/21 01:36:25;;;;;;;10.30;9.20;;;;;;;8.25;76.71;100326.85;102268;1119;80869;-60
2021/05/21 01:38:31;;;;;;;10.70;9.30;;;;;;;8.29;76.24;100323.66;102278;1120;80686;-60
2021/05/21 01:40:40;;;;;;;12.70;10.70;;;;;;;8.30;76.44;100325.34;102306;1121;79739;-60
2021/05/21 01:42:46;;;;;;;12.60;10.90;;;;;;;8.34;76.67;100311.53;102275;1120;80945;-60
2021/05/21 01:44:55;;;;;;;11.90;10.70;;;;;;;8.39;76.44;100318.06;102293;1121;81016;-58
2021/05/21 01:47:01;;;;;;;11.70;10.50;;;;;;;8.45;76.84;100317.36;102258;1121;80666;-58
2021/05/21 01:49:07;;;;;;;11.80;10.60;;;;;;;8.49;76.58;100304.39;102293;1121;80737;-59
2021/05/21 01:51:13;;;;;;;12.40;11.00;;;;;;;8.48;76.58;100295.47;102322;1120;81018;-58
2021/05/21 01:53:19;;;;;;;13.80;11.60;;;;;;;8.44;76.54;100306.75;102277;1120;81001;-58
2021/05/21 01:55:24;;;;;;;12.20;10.60;;;;;;;8.43;76.54;100303.25;102287;1121;80935;-58
2021/05/21 01:57:31;;;;;;;11.00;9.60;;;;;;;8.45;76.58;100300.37;102277;1121;81499;-58
2021/05/21 01:59:37;;;;;;;10.80;9.30;;;;;;;8.41;76.85;100299.88;102275;1121;80142;-59
2021/05/21 02:01:43;;;;;;;13.60;10.50;;;;;;;8.39;76.72;100301.91;102279;1121;80409;-60
2021/05/21 02:03:49;;;;;;;11.50;10.30;;;;;;;8.35;76.66;100300.58;102269;1121;80117;-60
2021/05/21 02:05:54;;;;;;;13.20;11.50;;;;;;;8.30;76.40;100302.97;102283;1120;81400;-58
2021/05/21 02:08:00;;;;;;;12.60;10.50;;;;;;;8.29;76.53;100301.31;102289;1121;80893;-58
2021/05/21 02:10:09;;;;;;;11.90;10.60;;;;;;;8.28;76.62;100307.70;102292;1120;80627;-58
2021/05/21 02:12:15;;;;;;;11.00;9.30;;;;;;;8.24;76.68;100311.74;102259;1121;80600;-58
2021/05/21 02:14:21;;;;;;;11.10;10.00;;;;;;;8.23;76.39;100302.83;102304;1120;80919;-59
2021/05/21 02:16:27;;;;;;;12.10;10.80;;;;;;;8.20;76.57;100296.95;102275;1121;80160;-60
2021/05/21 02:18:33;;;;;;;12.80;10.70;;;;;;;8.15;76.66;100300.18;102308;1121;78986;-60
2021/05/21 02:20:38;;;;;;;10.80;9.70;;;;;;;8.11;76.85;100298.00;102284;1121;81370;-57
2021/05/21 02:22:44;;;;;;;11.50;10.20;;;;;;;8.10;77.18;100294.46;102285;1120;80219;-57
2021/05/21 02:24:53;;;;;;;13.80;11.10;;;;;;;8.11;77.01;100293.46;102290;1121;80054;-57
2021/05/21 02:26:59;;;;;;;12.20;10.90;;;;;;;8.18;77.38;100286.38;102315;1121;80906;-57
2021/05/21 02:29:06;;;;;;;12.00;10.70;;;;;;;8.24;77.53;100285.64;102303;1121;79365;-57
2021/05/21 02:31:11;;;;;;;12.50;10.60;;;;;;;8.27;77.35;100287.17;102281;1121;79043;-58
2021/05/21 02:33:17;;;;;;;12.50;11.10;;;;;;;8.33;77.22;100288.31;102273;1121;79724;-58
2021/05/21 02:35:23;;;;;;;12.30;10.60;;;;;;;8.42;77.75;100285.41;102271;1121;80986;-59
2021/05/21 02:37:28;;;;;;;11.90;10.70;;;;;;;8.51;77.76;100286.20;102279;1121;80240;-59
2021/05/21 02:39:34;;;;;;;11.70;10.60;;;;;;;8.60;77.56;100283.25;102286;1121;79397;-59
2021/05/21 02:41:40;;;;;;;12.30;11.10;;;;;;;8.70;77.43;100283.88;102328;1120;80565;-59
2021/05/21 02:43:46;;;;;;;12.90;11.20;;;;;;;8.75;77.39;100288.70;102276;1120;80993;-60
2021/05/21 02:45:52;;;;;;;11.80;10.60;;;;;;;8.76;77.51;100276.93;102285;1121;78874;-60
2021/05/21 02:47:58;;;;;;;12.40;10.30;;;;;;;8.83;77.35;100285.95;102256;1121;81358;-60
2021/05/21 02:50:05;;;;;;;12.80;10.90;;;;;;;8.92;77.66;100286.72;102288;1121;80190;-60
2021/05/21 02:52:11;;;;;;;10.80;9.70;;;;;;;9.01;77.39;100274.87;102316;1121;80134;-60
2021/05/21 02:54:17;;;;;;;12.90;11.60;;;;;;;9.02;77.46;100280.06;102304;1121;81930;-60
2021/05/21 02:56:23;;;;;;;12.80;10.30;;;;;;;9.05;77.16;100286.94;102281;1120;79325;-60
2021/05/21 02:58:28;;;;;;;12.30;10.90;;;;;;;9.05;77.11;100284.24;102303;1120;80126;-60
2021/05/21 03:00:34;;;;;;;12.30;10.70;;;;;;;9.12;76.88;100280.63;102283;1121;79204;-60
2021/05/21 03:02:40;;;;;;;11.10;10.10;;;;;;;9.17;77.02;100274.70;102275;1120;80709;-60
2021/05/21 03:04:46;;;;;;;13.60;10.40;;;;;;;9.18;77.06;100277.20;102296;1121;81845;-59
2021/05/21 03:06:51;;;;;;;11.60;10.30;;;;;;;9.19;76.84;100273.50;102306;1121;80340;-58
2021/05/21 03:08:59;;;;;;;12.80;10.70;;;;;;;9.22;76.96;100280.38;102290;1121;79974;-58
2021/05/21 03:11:05;;;;;;;12.00;10.20;;;;;;;9.25;76.78;100277.32;102287;1121;80483;-58
2021/05/21 03:13:10;;;;;;;11.20;10.10;;;;;;;9.25;76.67;100282.71;102300;1120;79664;-58
2021/05/21 03:15:17;;;;;;;12.10;10.80;;;;;;;9.24;76.61;100291.81;102304;1120;80838;-60
2021/05/21 03:17:22;;;;;;;12.10;10.60;;;;;;;9.29;76.57;100275.91;102303;1120;79354;-60
2021/05/21 03:19:28;;;;;;;11.40;9.60;;;;;;;9.37;76.67;100273.98;102300;1120;80749;-58
2021/05/21 03:21:34;;;;;;;11.60;10.00;;;;;;;9.49;76.90;100279.76;102278;1121;81437;-59
2021/05/21 03:23:40;;;;;;;10.50;9.40;;;;;;;9.61;76.93;100278.28;102256;1121;80106;-59
2021/05/21 03:25:45;;;;;;;12.20;10.20;;;;;;;9.73;76.80;100276.78;102312;1120;80187;-59
2021/05/21 03:27:51;;;;;;;11.30;9.60;;;;;;;9.83;76.49;100276.51;102264;1120;81529;-59
2021/05/21 03:29:57;;;;;;;10.70;9.60;;;;;;;9.89;76.69;100286.52;102250;1121;81907;-59
2021/05/21 03:32:02;;;;;;;11.70;9.10;;;;;;;10.01;76.45;100275.08;102260;1115;81684;-59
2021/05/21 03:34:08;;;;;;;11.20;9.10;;;;;;;10.09;76.17;100274.97;102256;1121;79276;-59
2021/05/21 03:36:14;;;;;;;11.40;8.90;;;;;;;10.32;76.15;100277.56;102277;1121;79753;-59
2021/05/21 03:38:24;;;;;;;9.90;8.90;;;;;;;11.11;76.60;100279.16;102314;1121;80068;-59
2021/05/21 03:40:30;;;;;;;9.20;8.30;;;;;;;12.11;75.57;100279.61;102276;1121;80277;-59
2021/05/21 03:42:36;;;;;;;9.80;8.70;;;;;;;12.59;74.31;100276.82;102247;1121;80605;-59
2021/05/21 03:44:42;;;;;;;10.60;8.40;;;;;;;12.42;73.63;100273.66;102291;1121;79352;-60
2021/05/21 03:46:48;;;;;;;9.90;8.50;;;;;;;12.25;73.16;100278.59;102328;1121;80755;-60
2021/05/21 03:48:54;;;;;;;8.90;8.00;;;;;;;12.53;73.79;100281.19;102303;1121;81130;-62
2021/05/21 03:51:00;;;;;;;9.20;8.30;;;;;;;13.89;74.16;100266.98;102343;1121;80162;-62
2021/05/21 03:53:09;;;;;;;9.60;8.10;;;;;;;15.27;72.71;100258.86;102301;1121;80053;-62
2021/05/21 03:55:17;;;;;;;9.00;7.40;;;;;;;15.64;70.28;100257.88;102335;1121;79060;-61
2021/05/21 03:57:23;;;;;;;9.20;7.40;;;;;;;16.25;70.00;100260.52;102334;1121;80975;-61
2021/05/21 03:59:29;;;;;;;8.30;6.90;;;;;;;17.16;68.35;100260.25;102306;1120;81718;-60
2021/05/21 04:01:35;;;;;;;9.30;7.30;;;;;;;17.79;66.76;100257.66;102329;1121;80650;-60
2021/05/21 04:03:41;;;;;;;7.90;7.10;;;;;;;17.25;64.89;100266.20;102328;1121;80172;-60
2021/05/21 04:05:46;;;;;;;8.60;7.20;;;;;;;16.23;64.64;100269.98;102317;1121;79161;-62
2021/05/21 04:07:52;;;;;;;8.60;7.50;;;;;;;15.44;64.77;100265.38;102311;1116;79712;-62
2021/05/21 04:09:58;;;;;;;8.90;7.70;;;;;;;14.84;65.08;100266.93;102329;1121;79376;-62
2021/05/21 04:12:05;;;;;;;8.70;7.80;;;;;;;14.44;65.10;100276.39;102300;1121;80465;-62
2021/05/21 04:14:13;;;;;;;8.80;7.90;;;;;;;14.12;65.43;100268.14;102324;1121;79344;-62
2021/05/21 04:16:19;;;;;;;8.50;7.60;;;;;;;14.16;66.10;100271.27;102314;1121;81797;-59
2021/05/21 04:18:25;;;;;;;9.20;7.70;;;;;;;14.69;66.46;100274.58;102316;1121;80701;-60
2021/05/21 04:20:30;;;;;;;9.90;8.90;;;;;;;15.44;65.58;100273.54;102316;1121;79588;-62
2021/05/21 04:22:36;;;;;;;9.30;7.40;;;;;;;15.76;64.75;100266.98;102323;1121;79631;-61
2021/05/21 04:24:42;;;;;;;9.40;7.90;;;;;;;16.06;63.84;100277.11;102347;1120;80224;-60
2021/05/21 04:26:48;;;;;;;9.60;8.40;;;;;;;16.03;63.14;100272.11;102360;1121;80844;-61
2021/05/21 04:28:54;;;;;;;8.40;7.40;;;;;;;15.68;63.24;100269.16;102331;1120;79737;-61
2021/05/21 04:31:00;;;;;;;9.20;8.30;;;;;;;15.60;63.30;100266.73;102321;1121;79324;-59
2021/05/21 04:33:06;;;;;;;9.80;7.90;;;;;;;15.58;63.27;100266.11;102331;1121;80543;-59
2021/05/21 04:35:12;;;;;;;9.70;7.90;;;;;;;16.30;63.58;100259.81;102338;1121;81037;-61
2021/05/21 04:37:18;;;;;;;9.00;8.10;;;;;;;17.29;62.48;100259.17;102325;1121;80841;-61
2021/05/21 04:39:25;;;;;;;8.30;7.10;;;;;;;18.26;61.77;100253.76;102354;1121;80704;-60
2021/05/21 04:41:30;;;;;;;7.70;7.00;;;;;;;18.99;59.21;100258.42;102330;1121;81600;-60
2021/05/21 04:43:36;;;;;;;9.60;7.90;;;;;;;19.53;58.57;100261.53;102322;1120;81174;-61
2021/05/21 04:45:42;;;;;;;8.70;7.20;;;;;;;19.28;57.75;100260.00;102329;1120;80584;-59
2021/05/21 04:47:48;;;;;;;8.80;7.30;;;;;;;19.36;56.93;100261.52;102331;1120;79215;-59
2021/05/21 04:49:54;;;;;;;8.20;6.90;;;;;;;19.48;56.70;100262.27;102334;1121;80167;-62
2021/05/21 04:52:01;;;;;;;7.10;6.40;;;;;;;19.74;56.01;100263.48;102312;1121;81476;-61
2021/05/21 04:54:07;;;;;;;7.20;6.40;;;;;;;19.29;55.41;100258.93;102316;1121;80406;-62
2021/05/21 04:56:15;;;;;;;8.30;7.20;;;;;;;18.84;55.40;100266.38;102388;1120;80440;-62
2021/05/21 04:58:21;;;;;;;7.80;7.00;;;;;;;18.08;55.19;100273.05;102298;1121;81647;-62
2021/05/21 05:00:27;;;;;;;7.90;6.90;;;;;;;17.34;55.72;100275.67;102325;1121;79274;-62
2021/05/21 05:02:33;;;;;;;8.50;7.40;;;;;;;16.94;56.54;100281.80;102320;1121;80419;-62
2021/05/21 05:04:38;;;;;;;8.70;7.50;;;;;;;17.48;57.01;100271.66;102315;1121;81210;-60
2021/05/21 05:06:45;;;;;;;8.30;6.70;;;;;;;18.18;56.55;100265.05;102316;1120;79480;-60
2021/05/21 05:08:52;;;;;;;7.10;6.40;;;;;;;18.67;56.02;100266.34;102345;1121;80345;-59
2021/05/21 05:10:57;;;;;;;8.10;7.20;;;;;;;19.59;55.29;100264.08;102331;1121;80476;-58
2021/05/21 05:13:03;;;;;;;7.30;6.50;;;;;;;20.09;54.19;100258.47;102333;1120;80096;-59
2021/05/21 05:15:11;;;;;;;8.60;6.70;;;;;;;20.48;52.83;100267.48;102336;1121;81599;-59
2021/05/21 05:17:16;;;;;;;8.20;6.40;;;;;;;20.66;52.25;100269.07;102337;1121;79267;-59
2021/05/21 05:19:22;;;;;;;9.10;6.50;;;;;;;21.06;51.48;100267.55;102336;1121;80445;-59
2021/05/21 05:21:28;;;;;;;7.60;6.70;;;;;;;20.94;50.76;100268.78;102345;1119;81354;-59
2021/05/21 05:23:34;;;;;;;7.60;6.20;;;;;;;20.78;50.55;100267.81;102346;1121;80064;-59
2021/05/21 05:25:44;;;;;;;9.10;6.40;;;;;;;21.01;49.43;100270.22;102282;1121;80350;-59
2021/05/21 05:27:52;;;;;;;8.00;6.30;;;;;;;21.57;49.32;100266.05;102328;1121;78763;-59
2021/05/21 05:29:59;;;;;;;7.10;6.20;;;;;;;22.03;48.58;100261.67;102335;1121;80793;-62
2021/05/21 05:32:05;;;;;;;7.40;6.10;;;;;;;23.16;47.65;100259.80;102320;1121;79373;-62
2021/05/21 05:34:11;;;;;;;7.50;6.30;;;;;;;23.47;46.21;100255.14;102343;1121;80860;-62
2021/05/21 05:36:17;;;;;;;6.90;6.30;;;;;;;23.54;45.51;100254.86;102341;1120;80872;-59
2021/05/21 05:38:23;;;;;;;6.20;5.50;;;;;;;24.06;44.75;100249.77;102308;1120;81222;-59
2021/05/21 05:40:31;;;;;;;9.60;6.30;;;;;;;24.82;44.68;100260.48;102329;1121;79920;-60
2021/05/21 05:42:37;;;;;;;7.90;5.70;;;;;;;25.92;42.76;100255.94;102310;1121;80988;-61
2021/05/21 05:44:44;;;;;;;6.10;5.50;;;;;;;26.30;41.72;100249.41;102310;1121;79323;-60
2021/05/21 05:46:49;;;;;;;7.20;5.50;;;;;;;26.70;40.94;100244.45;102329;1120;79718;-57
2021/05/21 05:48:55;;;;;;;6.80;5.90;;;;;;;26.94;39.66;100247.99;102334;1121;80241;-63
2021/05/21 05:51:01;;;;;;;7.00;5.60;;;;;;;26.91;38.95;100243.05;102311;1121;81041;-58
2021/05/21 05:53:06;;;;;;;5.60;5.00;;;;;;;27.42;37.86;100241.10;102314;1116;79911;-59
2021/05/21 05:55:14;;;;;;;6.70;5.10;;;;;;;27.01;37.94;100244.82;102315;1121;81889;-58
2021/05/21 05:57:19;;;;;;;6.10;5.40;;;;;;;27.05;37.28;100241.16;102358;1121;80950;-57
2021/05/21 05:59:29;;;;;;;5.70;5.20;;;;;;;26.56;36.82;100240.77;102312;1120;80494;-58
2021/05/21 06:01:36;;;;;;;5.90;5.20;;;;;;;26.25;37.49;100243.12;102321;1121;79864;-59
2021/05/21 06:03:42;;;;;;;6.30;4.90;;;;;;;26.76;37.39;100238.52;102330;1121;78990;-59
2021/05/21 06:05:48;;;;;;;5.70;4.90;;;;;;;27.05;36.59;100234.78;102310;1121;80298;-56
2021/05/21 06:07:53;;;;;;;5.80;5.30;;;;;;;27.15;36.28;100235.44;102315;1120;81195;-56
2021/05/21 06:09:59;;;;;;;4.80;4.40;;;;;;;27.84;35.70;100230.89;102314;1121;80527;-60
2021/05/21 06:12:07;;;;;;;6.00;5.10;;;;;;;28.81;34.71;100227.75;102306;1121;80797;-61
2021/05/21 06:14:13;;;;;;;6.30;5.70;;;;;;;29.40;33.38;100227.39;102360;1121;80548;-60
2021/05/21 06:16:20;;;;;;;5.70;4.70;;;;;;;29.39;33.63;100217.42;102345;1121;79573;-61
2021/05/21 06:18:26;;;;;;;5.90;5.00;;;;;;;29.13;32.42;100228.34;102320;1120;79277;-61
2021/05/21 06:20:36;;;;;;;5.50;4.80;;;;;;;28.16;32.14;100227.21;102349;1121;79988;-56
2021/05/21 06:22:41;;;;;;;6.70;4.80;;;;;;;27.77;32.87;100227.71;102315;1121;80591;-57
2021/05/21 06:24:50;;;;;;;7.40;5.50;;;;;;;27.27;33.52;100233.03;102301;1121;80992;-57
2021/05/21 06:27:19;;;;;;;5.10;4.70;;;;;;;27.17;34.24;100232.34;102316;1121;80896;-56
2021/05/21 06:29:26;;;;;;;5.90;4.80;;;;;;;26.82;34.07;100226.27;102342;1120;80451;-58
2021/05/21 06:31:32;;;;;;;5.50;4.70;;;;;;;26.60;34.52;100222.41;102322;1121;79676;-58
2021/05/21 06:33:38;;;;;;;5.40;4.80;;;;;;;26.79;33.76;100224.09;102301;1121;79224;-61
2021/05/21 06:35:46;;;;;;;5.50;4.90;;;;;;;26.03;34.08;100213.17;102328;1120;80140;-58
2021/05/21 06:37:51;;;;;;;6.60;5.30;;;;;;;25.39;35.12;100218.27;102311;1120;81178;-59
2021/05/21 06:39:57;;;;;;;5.90;5.10;;;;;;;24.86;36.17;100220.92;102336;1120;79865;-62
2021/05/21 06:42:04;;;;;;;5.90;4.50;;;;;;;25.56;36.40;100213.16;102322;1121;80306;-63
2021/05/21 06:44:13;;;;;;;6.00;4.40;;;;;;;26.94;35.42;100211.95;102312;1120;79434;-58
2021/05/21 06:46:21;;;;;;;5.90;4.90;;;;;;;27.49;34.35;100208.25;102322;1121;81330;-61
2021/05/21 06:48:29;;;;;;;6.30;4.20;;;;;;;27.31;34.13;100200.76;102318;1121;80646;-61
2021/05/21 06:50:35;;;;;;;5.00;4.40;;;;;;;26.82;34.00;100203.25;102336;1121;79127;-61
2021/05/21 06:52:41;;;;;;;4.60;3.80;;;;;;;25.78;34.64;100206.00;102316;1121;80602;-60
2021/05/21 06:54:47;;;;;;;5.30;3.90;;;;;;;25.40;35.17;100208.86;102331;1121;80353;-60
2021/05/21 06:56:53;;;;;;;5.10;4.70;;;;;;;25.21;35.41;100209.59;102318;1121;80104;-61
2021/05/21 06:58:58;;;;;;;5.60;4.20;;;;;;;24.75;35.84;100201.93;102325;1120;79731;-59
2021/05/21 07:01:05;;;;;;;6.00;4.10;;;;;;;25.26;35.89;100203.19;102296;1120;79334;-61
2021/05/21 07:03:19;;;;;;;7.00;4.20;;;;;;;25.50;35.54;100208.78;102310;1121;81010;-62
2021/05/21 07:05:25;;;;;;;5.30;4.10;;;;;;;25.68;35.45;100208.06;102248;1120;81438;-61
2021/05/21 07:07:31;;;;;;;4.70;3.60;;;;;;;25.87;35.81;100192.34;102324;1120;80617;-61
2021/05/21 07:09:37;;;;;;;4.50;3.90;;;;;;;26.61;34.76;100193.58;102363;1121;80403;-61
2021/05/21 07:11:43;;;;;;;4.90;3.60;;;;;;;27.33;33.69;100189.38;102327;1120;79682;-61
2021/05/21 07:13:49;;;;;;;4.20;3.60;;;;;;;27.24;33.75;100186.47;102316;1121;80964;-61
2021/05/21 07:15:55;;;;;;;4.10;3.10;;;;;;;27.52;33.30;100190.16;102330;1120;80251;-61
2021/05/21 07:18:00;;;;;;;4.40;3.30;;;;;;;27.61;33.55;100188.30;102321;1121;80997;-65
2021/05/21 07:20:13;;;;;;;4.20;2.60;;;;;;;28.54;32.25;100184.95;102327;1120;81763;-61
2021/05/21 07:22:19;;;;;;;3.20;2.70;;;;;;;29.57;32.01;100185.74;102329;1121;79142;-63
2021/05/21 07:24:29;;;;;;;3.10;2.80;;;;;;;30.38;30.06;100184.24;102359;1120;80156;-62
2021/05/21 07:26:35;;;;;;;3.20;2.40;;;;;;;31.23;29.16;100181.80;102327;1121;80606;-63
2021/05/21 07:28:41;;;;;;;3.70;3.00;;;;;;;31.70;28.37;100172.30;102304;1121;80804;-61
2021/05/21 07:30:47;;;;;;;7.10;4.20;;;;;;;32.01;28.01;100174.81;102340;1120;81713;-61
2021/05/21 07:32:53;;;;;;;4.10;3.10;;;;;;;31.95;27.25;100176.12;102303;1121;79718;-62
2021/05/21 07:35:03;;;;;;;5.60;3.40;;;;;;;31.22;26.59;100169.81;102333;1120;79894;-62
2021/05/21 07:37:28;;;;;;;4.30;2.70;;;;;;;30.21;27.78;100173.05;102294;1121;81094;-62
2021/05/21 07:39:37;;;;;;;3.70;2.50;;;;;;;29.65;28.60;100176.60;102326;1120;80625;-62
2021/05/21 07:41:43;;;;;;;3.20;2.80;;;;;;;30.02;28.46;100163.33;102233;1122;79179;-61
2021/05/21 07:43:49;;;;;;;3.30;2.60;;;;;;;30.69;27.06;100161.80;102335;1121;79761;-61
2021/05/21 07:45:58;;;;;;;2.40;2.10;;;;;;;30.91;26.46;100153.25;102297;1120;80486;-61
2021/05/21 07:48:06;;;;;;;3.80;2.50;;;;;;;30.91;26.26;100153.25;102336;1121;80651;-61
2021/05/21 07:50:14;;;;;;;2.70;2.40;;;;;;;31.04;25.89;100151.44;102331;1120;80602;-66
2021/05/21 07:52:20;;;;;;;4.80;2.40;;;;;;;30.85;25.61;100153.73;102324;1120;79545;-67
2021/05/21 07:54:26;;;;;;;3.50;2.10;;;;;;;30.12;25.68;100149.09;102350;1120;80509;-63
2021/05/21 07:56:53;;;;;;;3.20;1.70;;;;;;;29.87;26.72;100142.30;102304;1121;81500;-62
2021/05/21 07:58:58;;;;;;;2.90;1.60;;;;;;;30.48;26.35;100138.51;102295;1121;80639;-61
2021/05/21 08:01:06;;;;;;;3.50;2.00;;;;;;;30.93;25.91;100139.02;102332;1121;81401;-61
2021/05/21 08:03:12;;;;;;;5.60;2.20;;;;;;;31.52;26.20;100138.05;102342;1121;81306;-60
2021/05/21 08:05:18;;;;;;;2.50;1.50;;;;;;;31.51;25.24;100135.56;102319;1120;80581;-61
2021/05/21 08:07:24;;;;;;;3.50;1.60;;;;;;;31.74;24.33;100136.13;102321;1121;79127;-62
2021/05/21 08:09:30;;;;;;;3.80;2.20;;;;;;;31.51;23.39;100138.36;102334;1121;80976;-61
2021/05/21 08:11:47;;;;;;;2.30;1.50;;;;;;;31.97;24.03;100135.53;102314;1121;80781;-65
2021/05/21 08:13:53;;;;;;;2.30;1.60;;;;;;;32.52;23.14;100135.33;102341;1121;79504;-63
2021/05/21 08:16:03;;;;;;;3.80;1.50;;;;;;;32.72;23.61;100133.69;102336;1120;81013;-62
2021/05/21 08:18:09;;;;;;;3.00;1.50;;;;;;;32.99;22.24;100135.89;102326;1121;81220;-62
2021/05/21 08:20:17;;;;;;;1.90;1.30;;;;;;;32.73;21.70;100135.33;102322;1121;80147;-62
2021/05/21 08:22:26;;;;;;;1.80;1.30;;;;;;;32.38;21.90;100128.36;102342;1121;80909;-62
2021/05/21 08:24:32;;;;;;;1.90;1.30;;;;;;;32.47;23.19;100124.33;102331;1121;79878;-62
2021/05/21 08:26:37;;;;;;;2.00;1.30;;;;;;;31.92;22.04;100118.14;102320;1121;81881;-62
2021/05/21 08:28:44;;;;;;;3.10;1.30;;;;;;;30.64;22.05;100120.13;102260;1120;80636;-62
2021/05/21 08:30:53;;;;;;;3.70;1.50;;;;;;;29.96;22.65;100120.05;102333;1121;80841;-65
2021/05/21 08:32:59;;;;;;;2.10;1.30;;;;;;;29.05;23.45;100128.12;102308;1121;81024;-64
2021/05/21 08:35:07;;;;;;;1.70;1.10;;;;;;;28.08;24.77;100120.44;102336;1121;80724;-64
2021/05/21 08:37:16;;;;;;;2.30;1.50;;;;;;;27.67;25.16;100125.17;102324;1120;79856;-66
2021/05/21 08:39:23;;;;;;;2.60;1.50;;;;;;;26.75;25.78;100131.55;102271;1121;81103;-60
2021/05/21 08:41:31;;;;;;;2.70;1.60;;;;;;;26.00;26.06;100127.94;102311;1121;81215;-59
2021/05/21 08:43:45;;;;;;;1.90;1.60;;;;;;;25.32;27.40;100132.06;102329;1121;81672;-60
2021/05/21 08:45:50;;;;;;;2.20;1.40;;;;;;;25.69;28.15;100129.44;102327;1121;81770;-65
2021/05/21 08:47:57;;;;;;;3.30;1.10;;;;;;;25.78;28.21;100122.14;102336;1120;80069;-65
2021/05/21 08:50:08;;;;;;;2.60;1.50;;;;;;;26.18;28.63;100126.32;102337;1121;80408;-60
2021/05/21 08:52:13;;;;;;;2.20;1.50;;;;;;;27.41;27.68;100122.11;102314;1121;80536;-59
2021/05/21 08:54:19;;;;;;;1.80;1.20;;;;;;;28.16;25.89;100116.09;102312;1120;80039;-60
2021/05/21 08:56:26;;;;;;;1.60;1.00;;;;;;;28.36;26.43;100105.34;102323;1120;79236;-58
2021/05/21 08:58:32;;;;;;;2.70;1.60;;;;;;;28.82;25.58;100112.58;102342;1121;80764;-58
2021/05/21 09:00:38;;;;;;;3.00;1.50;;;;;;;28.32;25.24;100103.52;102361;1120;80331;-58
2021/05/21 09:02:46;;;;;;;2.20;1.20;;;;;;;28.33;24.99;100111.52;102340;1121;80500;-59
2021/05/21 09:05:19;;;;;;;1.80;1.30;;;;;;;27.96;27.03;100103.47;100921;1139;78635;-58
2021/05/21 09:07:30;;;;;;;1.90;1.00;;;;;;;28.56;25.87;100104.04;102026;1128;81048;-58
2021/05/21 09:09:45;;;;;;;1.50;1.10;;;;;;;29.30;24.73;100108.00;102047;1127;81762;-62
2021/05/21 09:11:55;;;;;;;1.90;1.30;;;;;;;29.57;23.79;100095.81;102272;1123;82555;-62
2021/05/21 09:14:05;;;;;;;1.30;0.90;;;;;;;29.48;23.88;100094.95;102255;1124;80817;-62
2021/05/21 09:16:24;;;;;;;2.50;1.00;;;;;;;29.40;23.57;100088.22;102290;1124;80998;-65
2021/05/21 09:18:30;;;;;;;2.40;1.20;;;;;;;29.00;24.38;100092.09;102265;1125;80853;-62
2021/05/21 09:20:39;;;;;;;1.70;1.00;;;;;;;28.60;23.88;100088.35;102296;1124;80975;-58
2021/05/21 09:23:01;;;;;;;2.10;1.00;;;;;;;28.31;24.29;100079.63;102277;1124;81358;-58
2021/05/21 09:25:09;;;;;;;2.60;1.00;;;;;;;27.71;24.23;100087.36;102252;1123;81302;-65
2021/05/21 09:27:17;;;;;;;2.60;1.10;;;;;;;27.20;25.00;100088.34;102273;1124;80069;-63
2021/05/21 09:29:45;;;;;;;2.80;1.10;;;;;;;26.75;25.29;100073.34;102273;1124;81906;-64
2021/05/21 09:32:18;;;;;;;1.40;1.10;;;;;;;26.09;26.16;100083.80;102260;1124;80290;-59
2021/05/21 09:34:35;;;;;;;3.80;1.00;;;;;;;25.50;27.31;100078.77;102257;1124;81808;-58
2021/05/21 09:36:42;;;;;;;2.30;1.40;;;;;;;25.29;27.28;100085.63;102261;1123;81619;-56
2021/05/21 09:38:50;;;;;;;2.70;1.20;;;;;;;24.86;28.72;100082.74;102275;1124;79821;-56
2021/05/21 09:41:05;;;;;;;2.30;1.20;;;;;;;24.44;28.70;100080.61;102303;1124;81494;-58
2021/05/21 09:43:10;;;;;;;3.10;1.20;;;;;;;24.39;28.67;100077.06;102250;1124;81755;-58
2021/05/21 09:45:33;;;;;;;2.30;1.10;;;;;;;24.47;29.53;100069.00;102261;1123;81770;-57